Time;durP1;ratioP1;P1;durP2;ratioP2;P2;SDS_P1;SDS_P2;PMS_P1;PMS_P2;Temp;Humidity;BMP_temperature;BMP_pressure;BME280_temperature;BME280_humidity;BME280_pressure;Samples;Min_cycle;Max_cycle;Signal;HPM_P1;HPM_P2
2024/01/13 00:01:45;;;;;;;7.20;4.93;;;;;;;;;;5074730;28;20316;-80
2024/01/13 00:04:11;;;;;;;6.33;4.60;;;;;;;;;;5075002;28;20566;-81
2024/01/13 00:06:38;;;;;;;6.87;4.47;;;;;;;;;;5074263;28;20838;-80
2024/01/13 00:09:04;;;;;;;8.10;5.40;;;;;;;;;;5074556;28;20816;-81
2024/01/13 00:11:31;;;;;;;9.27;6.07;;;;;;;;;;5074390;28;20466;-81
2024/01/13 00:13:58;;;;;;;8.83;5.50;;;;;;;;;;5074753;28;20827;-80
2024/01/13 00:16:26;;;;;;;8.27;5.30;;;;;;;;;;5074242;28;20474;-81
2024/01/13 00:18:52;;;;;;;8.97;5.50;;;;;;;;;;5074745;28;20478;-80
2024/01/13 00:21:19;;;;;;;8.40;4.40;;;;;;;;;;5074008;28;20549;-81
2024/01/13 00:23:45;;;;;;;11.57;5.80;;;;;;;;;;5074166;28;20522;-80
2024/01/13 00:26:12;;;;;;;9.77;5.30;;;;;;;;;;5073948;28;20466;-81
2024/01/13 00:28:38;;;;;;;7.30;5.13;;;;;;;;;;5074260;28;20442;-81
2024/01/13 00:31:05;;;;;;;9.90;4.70;;;;;;;;;;5072783;28;20469;-81
2024/01/13 00:33:33;;;;;;;6.97;4.70;;;;;;;;;;5074360;28;20447;-80
2024/01/13 00:36:00;;;;;;;6.20;4.90;;;;;;;;;;5073650;28;20477;-80
2024/01/13 00:38:26;;;;;;;10.13;5.57;;;;;;;;;;5074224;28;20443;-81
2024/01/13 00:40:53;;;;;;;6.47;4.37;;;;;;;;;;5073739;28;20467;-80
2024/01/13 00:43:19;;;;;;;8.87;5.07;;;;;;;;;;5074033;28;20438;-81
2024/01/13 00:45:46;;;;;;;11.10;4.90;;;;;;;;;;5073014;28;20471;-81
2024/01/13 00:48:12;;;;;;;8.57;5.40;;;;;;;;;;5074325;28;20435;-80
2024/01/13 00:50:40;;;;;;;8.57;4.50;;;;;;;;;;5071902;28;20526;-81
2024/01/13 00:53:07;;;;;;;13.70;5.33;;;;;;;;;;5073898;28;20441;-80
2024/01/13 00:55:33;;;;;;;10.10;4.90;;;;;;;;;;5073463;28;20470;-80
2024/01/13 00:58:00;;;;;;;7.03;4.27;;;;;;;;;;5074335;28;20431;-81
2024/01/13 01:00:27;;;;;;;6.90;5.30;;;;;;;;;;5073936;28;20481;-79
2024/01/13 01:02:53;;;;;;;11.10;5.70;;;;;;;;;;5074152;28;20431;-80
2024/01/13 01:05:19;;;;;;;9.10;5.40;;;;;;;;;;5074148;28;20463;-81
2024/01/13 01:07:48;;;;;;;10.03;4.80;;;;;;;;;;5073329;28;20908;-81
2024/01/13 01:10:17;;;;;;;7.70;5.13;;;;;;;;;;5074079;28;20839;-81
2024/01/13 01:12:44;;;;;;;6.30;4.77;;;;;;;;;;5073719;28;20819;-81
2024/01/13 01:15:11;;;;;;;10.60;4.77;;;;;;;;;;5072698;28;21055;-81
2024/01/13 01:17:37;;;;;;;9.27;5.13;;;;;;;;;;5073749;28;20521;-80
2024/01/13 01:20:04;;;;;;;6.40;4.80;;;;;;;;;;5073743;28;20967;-81
2024/01/13 01:22:31;;;;;;;9.43;4.70;;;;;;;;;;5073798;28;21023;-80
2024/01/13 01:25:01;;;;;;;9.43;4.93;;;;;;;;;;5073973;28;20492;-81
2024/01/13 01:27:28;;;;;;;7.43;4.83;;;;;;;;;;5072331;28;20516;-80
2024/01/13 01:29:54;;;;;;;11.57;5.20;;;;;;;;;;5073759;28;20925;-80
2024/01/13 01:32:21;;;;;;;8.77;5.43;;;;;;;;;;5073548;28;20553;-81
2024/01/13 01:34:51;;;;;;;10.00;5.43;;;;;;;;;;5072366;28;20841;-81
2024/01/13 01:37:17;;;;;;;10.10;5.47;;;;;;;;;;5073073;28;20470;-81
2024/01/13 01:39:43;;;;;;;12.50;5.03;;;;;;;;;;5073256;28;20489;-81
2024/01/13 01:42:11;;;;;;;13.70;5.40;;;;;;;;;;5073294;28;20542;-81
2024/01/13 01:44:39;;;;;;;7.80;5.63;;;;;;;;;;5073463;28;20274;-81
2024/01/13 01:47:08;;;;;;;13.50;5.80;;;;;;;;;;5073217;28;20499;-80
2024/01/13 01:49:34;;;;;;;9.47;5.50;;;;;;;;;;5073629;28;20467;-81
2024/01/13 01:52:02;;;;;;;14.23;5.33;;;;;;;;;;5073113;28;20557;-80
2024/01/13 01:54:29;;;;;;;8.77;5.17;;;;;;;;;;5073504;28;20558;-81
2024/01/13 01:56:57;;;;;;;11.73;5.37;;;;;;;;;;5073196;28;20470;-81
2024/01/13 01:59:25;;;;;;;8.00;4.93;;;;;;;;;;5072275;28;20996;-81
2024/01/13 02:01:53;;;;;;;9.63;5.30;;;;;;;;;;5074616;28;20481;-81
2024/01/13 02:04:20;;;;;;;9.80;5.90;;;;;;;;;;5077589;28;20467;-80
2024/01/13 02:06:48;;;;;;;8.17;5.50;;;;;;;;;;5077061;28;20995;-81
2024/01/13 02:09:15;;;;;;;9.90;5.87;;;;;;;;;;5076192;28;20442;-80
2024/01/13 02:11:41;;;;;;;9.97;5.97;;;;;;;;;;5077168;28;20473;-80
2024/01/13 02:14:08;;;;;;;12.80;6.77;;;;;;;;;;5076939;28;20504;-81
2024/01/13 02:16:36;;;;;;;9.60;5.97;;;;;;;;;;5076761;28;20494;-81
2024/01/13 02:19:02;;;;;;;11.80;7.73;;;;;;;;;;5077395;28;20529;-80
2024/01/13 02:21:29;;;;;;;10.67;6.23;;;;;;;;;;5076725;28;20532;-81
2024/01/13 02:23:57;;;;;;;9.73;6.30;;;;;;;;;;5077140;28;20515;-81
2024/01/13 02:26:25;;;;;;;12.80;6.80;;;;;;;;;;5076143;28;20470;-80
2024/01/13 02:28:51;;;;;;;11.60;7.10;;;;;;;;;;5076994;28;20439;-81
2024/01/13 02:31:18;;;;;;;15.73;7.00;;;;;;;;;;5075434;28;20514;-80
2024/01/13 02:33:45;;;;;;;12.37;7.87;;;;;;;;;;5077097;28;20474;-81
2024/01/13 02:36:12;;;;;;;14.17;7.90;;;;;;;;;;5079146;28;20510;-81
2024/01/13 02:38:38;;;;;;;26.37;8.50;;;;;;;;;;5085428;28;20439;-81
2024/01/13 02:41:07;;;;;;;11.63;7.90;;;;;;;;;;5076106;28;20475;-81
2024/01/13 02:43:32;;;;;;;10.70;6.83;;;;;;;;;;5077043;28;20441;-81
2024/01/13 02:45:58;;;;;;;8.10;6.47;;;;;;;;;;5076325;28;20541;-81
2024/01/13 02:48:25;;;;;;;10.07;7.73;;;;;;;;;;5076771;28;20205;-81
2024/01/13 02:50:55;;;;;;;9.47;6.87;;;;;;;;;;5076003;28;20473;-80
2024/01/13 02:53:23;;;;;;;13.57;7.20;;;;;;;;;;5075654;28;20431;-80
2024/01/13 02:55:50;;;;;;;8.67;6.30;;;;;;;;;;5076188;28;20459;-81
2024/01/13 02:58:18;;;;;;;9.10;6.17;;;;;;;;;;5076737;28;20435;-81
2024/01/13 03:00:44;;;;;;;13.40;6.30;;;;;;;;;;5076180;28;20530;-80
2024/01/13 03:03:11;;;;;;;12.27;6.57;;;;;;;;;;5076461;28;20526;-81
2024/01/13 03:05:38;;;;;;;9.33;6.20;;;;;;;;;;5075680;28;20541;-80
2024/01/13 03:08:05;;;;;;;9.43;5.70;;;;;;;;;;5076547;28;20482;-80
2024/01/13 03:10:32;;;;;;;20.03;6.47;;;;;;;;;;5076117;28;20865;-80
2024/01/13 03:13:01;;;;;;;10.10;6.30;;;;;;;;;;5075268;28;20878;-81
2024/01/13 03:15:29;;;;;;;11.50;6.57;;;;;;;;;;5075170;28;20469;-80
2024/01/13 03:17:56;;;;;;;11.03;5.90;;;;;;;;;;5076054;28;20526;-81
2024/01/13 03:20:23;;;;;;;8.70;6.77;;;;;;;;;;5074176;28;20482;-79
2024/01/13 03:22:49;;;;;;;12.80;7.43;;;;;;;;;;5074833;28;20431;-81
2024/01/13 03:25:16;;;;;;;9.00;5.80;;;;;;;;;;5075738;28;20833;-81
2024/01/13 03:27:42;;;;;;;6.80;6.10;;;;;;;;;;5075604;28;20520;-81
2024/01/13 03:30:09;;;;;;;12.10;7.57;;;;;;;;;;5075848;28;20530;-80
2024/01/13 03:32:37;;;;;;;9.60;5.63;;;;;;;;;;5075837;28;20891;-81
2024/01/13 03:35:05;;;;;;;10.70;6.30;;;;;;;;;;5075522;28;20459;-81
2024/01/13 03:37:32;;;;;;;11.40;6.30;;;;;;;;;;5075635;28;20541;-81
2024/01/13 03:39:58;;;;;;;10.87;6.67;;;;;;;;;;5075790;28;20487;-80
2024/01/13 03:42:25;;;;;;;7.70;6.00;;;;;;;;;;5075233;28;20473;-81
2024/01/13 03:44:51;;;;;;;9.67;6.50;;;;;;;;;;5075423;28;20497;-81
2024/01/13 03:47:18;;;;;;;10.37;6.37;;;;;;;;;;5074702;28;20471;-81
2024/01/13 03:49:46;;;;;;;6.37;5.33;;;;;;;;;;5075198;28;20435;-81
2024/01/13 03:52:12;;;;;;;8.70;6.00;;;;;;;;;;5074923;28;20583;-81
2024/01/13 03:54:38;;;;;;;9.00;5.57;;;;;;;;;;5075006;28;20475;-80
2024/01/13 03:57:06;;;;;;;6.43;5.67;;;;;;;;;;5073779;28;20454;-80
2024/01/13 03:59:33;;;;;;;7.23;4.80;;;;;;;;;;5074132;28;20431;-81
2024/01/13 04:01:59;;;;;;;9.70;5.97;;;;;;;;;;5074827;28;20554;-80
2024/01/13 04:04:26;;;;;;;8.30;5.27;;;;;;;;;;5075021;28;20469;-81
2024/01/13 04:06:54;;;;;;;6.70;5.00;;;;;;;;;;5074681;28;20836;-80
2024/01/13 04:09:21;;;;;;;8.27;6.17;;;;;;;;;;5075250;28;20510;-81
2024/01/13 04:11:48;;;;;;;8.80;5.03;;;;;;;;;;5073405;28;20474;-80
2024/01/13 04:14:14;;;;;;;8.53;5.53;;;;;;;;;;5075033;28;20498;-81
2024/01/13 04:16:41;;;;;;;8.10;5.43;;;;;;;;;;5072930;28;20466;-81
2024/01/13 04:19:07;;;;;;;7.07;5.10;;;;;;;;;;5074722;28;20435;-80
2024/01/13 04:21:34;;;;;;;9.40;5.57;;;;;;;;;;5073826;28;20467;-81
2024/01/13 04:24:04;;;;;;;7.07;4.90;;;;;;;;;;5074826;28;20435;-80
2024/01/13 04:26:30;;;;;;;8.77;4.87;;;;;;;;;;5073981;28;21014;-80
2024/01/13 04:28:57;;;;;;;7.90;5.43;;;;;;;;;;5074650;28;20514;-81
2024/01/13 04:31:23;;;;;;;6.83;5.23;;;;;;;;;;5073941;28;20475;-80
2024/01/13 04:33:49;;;;;;;6.47;5.10;;;;;;;;;;5074544;28;21011;-80
2024/01/13 04:36:16;;;;;;;5.20;4.30;;;;;;;;;;5074313;28;20486;-81
2024/01/13 04:38:42;;;;;;;6.43;4.40;;;;;;;;;;5074427;28;20435;-81
2024/01/13 04:41:11;;;;;;;5.60;4.80;;;;;;;;;;5073636;28;20478;-80
2024/01/13 04:43:38;;;;;;;7.70;5.40;;;;;;;;;;5074212;28;20431;-81
2024/01/13 04:46:05;;;;;;;7.70;5.07;;;;;;;;;;5073701;28;20473;-81
2024/01/13 04:48:32;;;;;;;7.30;4.57;;;;;;;;;;5074305;28;20520;-81
2024/01/13 04:50:58;;;;;;;6.17;5.13;;;;;;;;;;5073768;28;20478;-80
2024/01/13 04:53:25;;;;;;;7.53;5.20;;;;;;;;;;5074082;28;20436;-80
2024/01/13 04:55:54;;;;;;;4.97;4.33;;;;;;;;;;5072262;28;20470;-80
2024/01/13 04:58:21;;;;;;;5.43;4.43;;;;;;;;;;5072567;28;20439;-81
2024/01/13 05:00:48;;;;;;;6.60;4.67;;;;;;;;;;5073282;28;20996;-80
2024/01/13 05:03:14;;;;;;;7.50;5.33;;;;;;;;;;5072461;28;20443;-81
2024/01/13 05:05:41;;;;;;;5.90;4.47;;;;;;;;;;5072155;28;20545;-80
2024/01/13 05:08:08;;;;;;;4.90;3.90;;;;;;;;;;5074111;28;20435;-81
2024/01/13 05:10:34;;;;;;;7.20;4.67;;;;;;;;;;5073108;28;20436;-80
2024/01/13 05:13:01;;;;;;;6.93;4.00;;;;;;;;;;5074069;28;20435;-81
2024/01/13 05:15:29;;;;;;;6.23;4.00;;;;;;;;;;5073454;28;21016;-80
2024/01/13 05:17:55;;;;;;;6.20;4.50;;;;;;;;;;5073949;28;20439;-81
2024/01/13 05:20:22;;;;;;;7.33;5.17;;;;;;;;;;5073735;28;20443;-81
2024/01/13 05:22:48;;;;;;;6.30;4.40;;;;;;;;;;5068474;28;20462;-81
2024/01/13 05:25:15;;;;;;;8.10;4.47;;;;;;;;;;5074002;28;20485;-81
2024/01/13 05:27:43;;;;;;;7.60;4.87;;;;;;;;;;5073333;28;20463;-81
2024/01/13 05:30:11;;;;;;;8.37;4.90;;;;;;;;;;5073644;28;20533;-81
2024/01/13 05:32:40;;;;;;;7.80;5.03;;;;;;;;;;5072839;28;20471;-81
2024/01/13 05:35:08;;;;;;;5.20;4.70;;;;;;;;;;5073743;28;20459;-81
2024/01/13 05:37:35;;;;;;;12.50;4.83;;;;;;;;;;5075769;28;20524;-80
2024/01/13 05:40:02;;;;;;;6.47;4.63;;;;;;;;;;5077893;28;20449;-80
2024/01/13 05:42:28;;;;;;;5.80;3.93;;;;;;;;;;5077161;28;20525;-81
2024/01/13 05:44:54;;;;;;;7.23;4.40;;;;;;;;;;5077213;28;21004;-81
2024/01/13 05:47:21;;;;;;;5.40;4.07;;;;;;;;;;5077216;28;20984;-81
2024/01/13 05:49:49;;;;;;;5.80;4.50;;;;;;;;;;5077560;28;20804;-81
2024/01/13 05:52:15;;;;;;;4.33;3.93;;;;;;;;;;5075878;28;20471;-80
2024/01/13 05:54:43;;;;;;;6.70;4.20;;;;;;;;;;5076901;28;20473;-81
2024/01/13 05:57:09;;;;;;;8.87;4.93;;;;;;;;;;5077080;28;20481;-80
2024/01/13 05:59:36;;;;;;;6.13;4.50;;;;;;;;;;5076092;28;20449;-80
2024/01/13 06:02:02;;;;;;;7.93;4.50;;;;;;;;;;5076823;28;20471;-81
2024/01/13 06:04:30;;;;;;;7.80;5.40;;;;;;;;;;5077316;28;20455;-80
2024/01/13 06:06:57;;;;;;;5.20;4.07;;;;;;;;;;5076261;28;20473;-80
2024/01/13 06:09:24;;;;;;;10.20;5.10;;;;;;;;;;5077177;28;20522;-81
2024/01/13 06:11:50;;;;;;;7.13;3.70;;;;;;;;;;5076523;28;20462;-80
2024/01/13 06:14:19;;;;;;;7.93;4.50;;;;;;;;;;5077307;28;20455;-80
2024/01/13 06:16:46;;;;;;;8.00;4.40;;;;;;;;;;5076737;28;20557;-80
2024/01/13 06:19:12;;;;;;;5.50;4.47;;;;;;;;;;5076964;28;20870;-81
2024/01/13 06:21:42;;;;;;;5.07;3.73;;;;;;;;;;5076474;28;20475;-80
2024/01/13 06:24:10;;;;;;;4.37;3.30;;;;;;;;;;5076879;28;20466;-80
2024/01/13 06:26:38;;;;;;;5.70;3.53;;;;;;;;;;5076314;28;20474;-81
2024/01/13 06:29:05;;;;;;;10.93;4.30;;;;;;;;;;5076338;28;20825;-81
2024/01/13 06:31:32;;;;;;;6.43;3.27;;;;;;;;;;5074939;28;20467;-81
2024/01/13 06:33:58;;;;;;;5.23;3.50;;;;;;;;;;5076346;28;20438;-81
2024/01/13 06:36:25;;;;;;;5.63;3.77;;;;;;;;;;5076346;28;20562;-80
2024/01/13 06:38:53;;;;;;;6.47;4.43;;;;;;;;;;5076426;28;20439;-80
2024/01/13 06:41:21;;;;;;;8.10;4.10;;;;;;;;;;5075968;28;20565;-81
2024/01/13 06:43:47;;;;;;;5.53;3.80;;;;;;;;;;5076879;28;20442;-81
2024/01/13 06:46:14;;;;;;;3.63;3.33;;;;;;;;;;5075548;28;20481;-81
2024/01/13 06:48:40;;;;;;;6.90;3.77;;;;;;;;;;5076307;28;20525;-81
2024/01/13 06:51:07;;;;;;;6.63;3.80;;;;;;;;;;5076029;28;20463;-80
2024/01/13 06:53:34;;;;;;;3.87;3.47;;;;;;;;;;5075899;28;20455;-81
2024/01/13 06:56:00;;;;;;;5.63;3.20;;;;;;;;;;5075289;28;20473;-81
2024/01/13 06:58:28;;;;;;;4.47;2.93;;;;;;;;;;5075668;28;20445;-81
2024/01/13 07:00:55;;;;;;;6.43;3.40;;;;;;;;;;5075528;28;20474;-80
2024/01/13 07:03:21;;;;;;;3.60;3.23;;;;;;;;;;5076073;28;20435;-81
2024/01/13 07:05:48;;;;;;;8.40;5.00;;;;;;;;;;5075385;28;20471;-81
2024/01/13 07:08:14;;;;;;;14.57;9.60;;;;;;;;;;5074576;28;20973;-80
2024/01/13 07:10:41;;;;;;;15.63;10.20;;;;;;;;;;5075534;28;20481;-80
2024/01/13 07:13:07;;;;;;;28.50;16.43;;;;;;;;;;5075628;28;20431;-80
2024/01/13 07:15:35;;;;;;;4.83;4.33;;;;;;;;;;5075192;28;20469;-81
2024/01/13 07:18:02;;;;;;;4.60;3.63;;;;;;;;;;5075889;28;20541;-81
2024/01/13 07:20:28;;;;;;;5.30;4.00;;;;;;;;;;5075082;28;20533;-80
2024/01/13 07:22:57;;;;;;;10.83;9.93;;;;;;;;;;5076270;28;20822;-80
2024/01/13 07:25:25;;;;;;;7.03;4.63;;;;;;;;;;5075357;28;20549;-78
2024/01/13 07:27:52;;;;;;;18.10;16.40;;;;;;;;;;5076634;28;20443;-80
2024/01/13 07:30:18;;;;;;;5.07;4.17;;;;;;;;;;5075180;28;20523;-80
2024/01/13 07:32:46;;;;;;;5.63;4.27;;;;;;;;;;5075946;28;20558;-80
2024/01/13 07:35:12;;;;;;;9.17;7.90;;;;;;;;;;5076491;28;20895;-80
2024/01/13 07:37:43;;;;;;;7.33;3.67;;;;;;;;;;5075485;28;20471;-80
2024/01/13 07:40:10;;;;;;;4.70;3.97;;;;;;;;;;5076571;28;20419;-80
2024/01/13 07:42:38;;;;;;;5.40;4.90;;;;;;;;;;5075649;28;20479;-80
2024/01/13 07:45:05;;;;;;;8.70;5.53;;;;;;;;;;5075970;28;20455;-80
2024/01/13 07:47:32;;;;;;;3.77;3.33;;;;;;;;;;5075358;28;20482;-80
2024/01/13 07:49:59;;;;;;;7.50;5.67;;;;;;;;;;5076077;28;20446;-80
2024/01/13 07:52:26;;;;;;;5.60;4.20;;;;;;;;;;5075279;28;20463;-80
2024/01/13 07:54:52;;;;;;;7.83;4.83;;;;;;;;;;5075695;28;20469;-80
2024/01/13 07:57:19;;;;;;;4.73;3.90;;;;;;;;;;5075205;28;20477;-80
2024/01/13 07:59:45;;;;;;;5.60;3.50;;;;;;;;;;5073879;28;20439;-80
2024/01/13 08:02:12;;;;;;;8.00;5.97;;;;;;;;;;5075145;28;20992;-80
2024/01/13 08:04:38;;;;;;;6.07;4.20;;;;;;;;;;5076412;28;20454;-80
2024/01/13 08:07:06;;;;;;;5.40;4.23;;;;;;;;;;5075919;28;20482;-80
2024/01/13 08:09:33;;;;;;;9.40;7.43;;;;;;;;;;5075331;28;20527;-80
2024/01/13 08:12:03;;;;;;;7.00;5.33;;;;;;;;;;5073832;28;20561;-80
2024/01/13 08:14:29;;;;;;;4.93;3.33;;;;;;;;;;5074920;28;20489;-80
2024/01/13 08:16:57;;;;;;;5.00;2.93;;;;;;;;;;5074790;28;20477;-80
2024/01/13 08:19:24;;;;;;;4.30;2.97;;;;;;;;;;5075266;28;20526;-80
2024/01/13 08:21:51;;;;;;;6.20;4.20;;;;;;;;;;5074892;28;20478;-80
2024/01/13 08:24:18;;;;;;;5.47;3.70;;;;;;;;;;5074895;28;20470;-80
2024/01/13 08:26:45;;;;;;;5.97;4.00;;;;;;;;;;5073568;28;20485;-80
2024/01/13 08:29:11;;;;;;;5.57;3.63;;;;;;;;;;5074784;28;20963;-80
2024/01/13 08:31:38;;;;;;;4.77;3.53;;;;;;;;;;5074767;28;20477;-80
2024/01/13 08:34:04;;;;;;;19.20;14.60;;;;;;;;;;5075150;28;20836;-80
2024/01/13 08:36:31;;;;;;;41.03;30.80;;;;;;;;;;5074607;28;20554;-80
2024/01/13 08:38:58;;;;;;;7.67;6.40;;;;;;;;;;5074876;28;20492;-80
2024/01/13 08:41:26;;;;;;;31.37;21.73;;;;;;;;;;5074386;28;20556;-80
2024/01/13 08:43:52;;;;;;;9.70;8.80;;;;;;;;;;5074664;28;20463;-80
2024/01/13 08:46:19;;;;;;;3.90;3.13;;;;;;;;;;5076174;28;20474;-80
2024/01/13 08:48:46;;;;;;;6.27;5.63;;;;;;;;;;5074784;28;20442;-80
2024/01/13 08:51:12;;;;;;;5.90;5.30;;;;;;;;;;5074109;28;20467;-80
2024/01/13 08:53:39;;;;;;;3.27;2.17;;;;;;;;;;5074390;28;20966;-80
2024/01/13 08:56:06;;;;;;;6.20;3.87;;;;;;;;;;5073965;28;20481;-80
2024/01/13 08:58:33;;;;;;;4.40;3.40;;;;;;;;;;5074673;28;20812;-80
2024/01/13 09:01:00;;;;;;;5.30;3.50;;;;;;;;;;5073506;28;20490;-80
2024/01/13 09:03:28;;;;;;;8.20;6.20;;;;;;;;;;5074772;28;20566;-80
2024/01/13 09:05:56;;;;;;;4.60;3.20;;;;;;;;;;5072770;28;21057;-80
2024/01/13 09:08:22;;;;;;;5.03;4.40;;;;;;;;;;5073644;28;20522;-80
2024/01/13 09:10:49;;;;;;;10.43;9.33;;;;;;;;;;5074551;28;20550;-80
2024/01/13 09:13:15;;;;;;;5.03;4.50;;;;;;;;;;5074131;28;20439;-80
2024/01/13 09:15:43;;;;;;;5.40;4.27;;;;;;;;;;5074246;28;20538;-80
2024/01/13 09:18:10;;;;;;;4.67;4.20;;;;;;;;;;5072782;28;20443;-80
2024/01/13 09:20:36;;;;;;;7.13;5.30;;;;;;;;;;5074020;28;20438;-80
2024/01/13 09:23:03;;;;;;;6.97;6.00;;;;;;;;;;5074285;28;20479;-80
2024/01/13 09:25:30;;;;;;;7.87;7.10;;;;;;;;;;5073816;28;20455;-79
2024/01/13 09:27:56;;;;;;;3.80;3.27;;;;;;;;;;5074295;28;21007;-80
2024/01/13 09:30:23;;;;;;;4.77;3.20;;;;;;;;;;5074010;28;20466;-78
2024/01/13 09:32:51;;;;;;;3.37;2.60;;;;;;;;;;5074551;28;20435;-80
2024/01/13 09:35:18;;;;;;;7.47;3.10;;;;;;;;;;5073881;28;20545;-80
2024/01/13 09:37:44;;;;;;;5.63;3.80;;;;;;;;;;5073805;28;21018;-80
2024/01/13 09:40:13;;;;;;;4.10;3.20;;;;;;;;;;5074479;28;20446;-80
2024/01/13 09:42:44;;;;;;;5.07;2.70;;;;;;;;;;5073646;28;20548;-80
2024/01/13 09:45:10;;;;;;;3.83;2.83;;;;;;;;;;5074202;28;20450;-80
2024/01/13 09:47:37;;;;;;;7.03;5.00;;;;;;;;;;5073644;28;20489;-80
2024/01/13 09:50:07;;;;;;;7.37;5.83;;;;;;;;;;5072243;28;20435;-80
2024/01/13 09:52:34;;;;;;;4.30;2.80;;;;;;;;;;5073801;28;20463;-80
2024/01/13 09:55:01;;;;;;;3.93;2.83;;;;;;;;;;5073730;28;20509;-80
2024/01/13 09:57:28;;;;;;;6.30;3.27;;;;;;;;;;5072652;28;20474;-80
2024/01/13 09:59:56;;;;;;;10.70;9.40;;;;;;;;;;5074132;28;20438;-80
2024/01/13 10:02:22;;;;;;;8.90;6.73;;;;;;;;;;5073398;28;21048;-80
2024/01/13 10:04:50;;;;;;;11.53;9.17;;;;;;;;;;5073469;28;20461;-80
2024/01/13 10:07:18;;;;;;;11.30;7.23;;;;;;;;;;5073460;28;20481;-80
2024/01/13 10:09:44;;;;;;;12.30;10.90;;;;;;;;;;5074051;28;20522;-79
2024/01/13 10:12:11;;;;;;;12.83;8.30;;;;;;;;;;5074132;28;20546;-79
2024/01/13 10:14:39;;;;;;;11.63;7.40;;;;;;;;;;5073598;28;20478;-81
2024/01/13 10:17:06;;;;;;;10.20;6.57;;;;;;;;;;5073185;28;21088;-79
2024/01/13 10:19:35;;;;;;;16.33;8.00;;;;;;;;;;5073596;28;20530;-81
2024/01/13 10:22:02;;;;;;;16.23;9.07;;;;;;;;;;5072667;28;20996;-81
2024/01/13 10:24:30;;;;;;;14.53;8.90;;;;;;;;;;5077175;28;20465;-81
2024/01/13 10:26:57;;;;;;;17.63;9.97;;;;;;;;;;5076786;28;20469;-80
2024/01/13 10:29:24;;;;;;;22.67;11.07;;;;;;;;;;5076713;28;20474;-81
2024/01/13 10:31:52;;;;;;;21.77;12.00;;;;;;;;;;5076475;28;20489;-81
2024/01/13 10:34:19;;;;;;;26.40;13.13;;;;;;;;;;5076840;28;20462;-81
2024/01/13 10:36:46;;;;;;;19.97;12.43;;;;;;;;;;5076289;28;20467;-81
2024/01/13 10:39:15;;;;;;;28.43;14.50;;;;;;;;;;5077051;28;20445;-82
2024/01/13 10:41:44;;;;;;;29.20;14.90;;;;;;;;;;5076679;28;20494;-80
2024/01/13 10:44:12;;;;;;;28.27;14.23;;;;;;;;;;5076431;28;20485;-81
2024/01/13 10:46:40;;;;;;;31.60;16.30;;;;;;;;;;5075941;28;20558;-81
2024/01/13 10:49:14;;;;;;;26.77;14.10;;;;;;;;;;5075014;28;20527;-81
2024/01/13 10:51:42;;;;;;;26.20;13.83;;;;;;;;;;5076092;28;20473;-81
2024/01/13 10:54:10;;;;;;;29.83;15.10;;;;;;;;;;5075824;28;20447;-80
2024/01/13 10:56:38;;;;;;;36.50;16.93;;;;;;;;;;5075904;28;20496;-81
2024/01/13 10:59:08;;;;;;;47.10;22.17;;;;;;;;;;5075881;28;20439;-79
2024/01/13 11:01:35;;;;;;;31.53;17.07;;;;;;;;;;5075827;28;20470;-79
2024/01/13 11:04:05;;;;;;;31.70;16.00;;;;;;;;;;5076224;28;20488;-81
2024/01/13 11:06:32;;;;;;;37.30;17.83;;;;;;;;;;5074124;28;20455;-81
2024/01/13 11:08:59;;;;;;;39.37;19.67;;;;;;;;;;5076839;28;20538;-78
2024/01/13 11:11:27;;;;;;;37.03;18.20;;;;;;;;;;5076301;28;20518;-79
2024/01/13 11:13:57;;;;;;;37.07;19.70;;;;;;;;;;5076685;28;20522;-81
2024/01/13 11:16:27;;;;;;;45.33;23.47;;;;;;;;;;5078504;28;21025;-79
2024/01/13 11:18:54;;;;;;;39.67;20.33;;;;;;;;;;5091853;28;20538;-79
2024/01/13 11:21:28;;;;;;;39.63;20.60;;;;;;;;;;5075778;28;20494;-79
2024/01/13 11:23:58;;;;;;;48.27;23.77;;;;;;;;;;5076418;28;20550;-79
2024/01/13 11:26:33;;;;;;;43.20;22.50;;;;;;;;;;5076025;28;20470;-79
2024/01/13 11:29:00;;;;;;;41.10;20.83;;;;;;;;;;5076255;28;20846;-79
2024/01/13 11:31:32;;;;;;;42.80;22.00;;;;;;;;;;5075832;28;20803;-79
2024/01/13 11:34:00;;;;;;;49.17;23.80;;;;;;;;;;5075320;28;20580;-79
2024/01/13 11:36:28;;;;;;;44.00;22.73;;;;;;;;;;5075588;28;20474;-79
2024/01/13 11:38:56;;;;;;;45.00;20.80;;;;;;;;;;5076595;28;20530;-79
2024/01/13 11:41:23;;;;;;;43.70;22.73;;;;;;;;;;5075870;28;20466;-79
2024/01/13 11:43:49;;;;;;;45.20;22.20;;;;;;;;;;5075459;28;20483;-79
2024/01/13 11:46:17;;;;;;;42.90;22.50;;;;;;;;;;5075589;28;20478;-79
2024/01/13 11:48:46;;;;;;;53.10;25.40;;;;;;;;;;5075594;28;20446;-79
2024/01/13 11:51:14;;;;;;;93.27;42.17;;;;;;;;;;5075602;28;20558;-79
2024/01/13 11:53:43;;;;;;;46.63;22.53;;;;;;;;;;5075541;28;20451;-79
2024/01/13 11:56:10;;;;;;;59.13;27.57;;;;;;;;;;5075392;28;20528;-79
2024/01/13 11:58:37;;;;;;;44.77;25.77;;;;;;;;;;5076074;28;20443;-79
2024/01/13 12:01:05;;;;;;;53.73;26.40;;;;;;;;;;5075255;28;20473;-79
2024/01/13 12:03:31;;;;;;;38.13;19.97;;;;;;;;;;5075303;28;20485;-79
2024/01/13 12:06:00;;;;;;;45.53;22.00;;;;;;;;;;5073600;28;20474;-78
2024/01/13 12:08:26;;;;;;;47.80;22.10;;;;;;;;;;5075635;28;20441;-81
2024/01/13 12:10:53;;;;;;;43.17;24.70;;;;;;;;;;5075324;28;20479;-81
2024/01/13 12:13:20;;;;;;;43.13;20.53;;;;;;;;;;5074061;28;20937;-80
2024/01/13 12:15:47;;;;;;;44.43;21.90;;;;;;;;;;5074787;28;20558;-80
2024/01/13 12:18:22;;;;;;;46.73;24.47;;;;;;;;;;5075204;28;20478;-80
2024/01/13 12:20:51;;;;;;;44.13;21.10;;;;;;;;;;5075234;28;20541;-80
2024/01/13 12:23:19;;;;;;;48.87;22.33;;;;;;;;;;5075197;28;20567;-80
2024/01/13 12:25:45;;;;;;;53.07;23.80;;;;;;;;;;5074453;28;20455;-78
2024/01/13 12:28:12;;;;;;;48.27;22.73;;;;;;;;;;5075200;28;20442;-80
2024/01/13 12:30:40;;;;;;;42.63;23.30;;;;;;;;;;5074997;28;20435;-80
2024/01/13 12:33:07;;;;;;;47.43;21.30;;;;;;;;;;5073259;28;20471;-80
2024/01/13 12:35:33;;;;;;;50.27;25.60;;;;;;;;;;5074287;28;20466;-80
2024/01/13 12:38:00;;;;;;;45.73;22.87;;;;;;;;;;5074557;28;20937;-80
2024/01/13 12:40:29;;;;;;;51.23;23.93;;;;;;;;;;5074305;28;20526;-80
2024/01/13 12:42:57;;;;;;;45.70;23.17;;;;;;;;;;5077812;28;20857;-79
2024/01/13 12:45:25;;;;;;;46.20;21.07;;;;;;;;;;5074538;28;20459;-78
2024/01/13 12:47:52;;;;;;;42.67;21.57;;;;;;;;;;5074933;28;20447;-80
2024/01/13 12:50:19;;;;;;;45.03;23.00;;;;;;;;;;5075252;28;20868;-80
2024/01/13 12:52:45;;;;;;;51.00;23.87;;;;;;;;;;5074901;28;20467;-80
2024/01/13 12:55:12;;;;;;;46.83;23.60;;;;;;;;;;5074529;28;20477;-80
2024/01/13 12:57:40;;;;;;;43.70;20.47;;;;;;;;;;5073581;28;20550;-80
2024/01/13 13:00:07;;;;;;;44.60;23.70;;;;;;;;;;5074459;28;20435;-80
2024/01/13 13:02:34;;;;;;;46.43;22.07;;;;;;;;;;5074781;28;20526;-80
2024/01/13 13:05:04;;;;;;;40.03;22.40;;;;;;;;;;5072588;28;20478;-79
2024/01/13 13:07:31;;;;;;;45.97;21.60;;;;;;;;;;5074324;28;20546;-79
2024/01/13 13:09:58;;;;;;;41.93;20.17;;;;;;;;;;5073429;28;20455;-79
2024/01/13 13:12:25;;;;;;;41.87;21.33;;;;;;;;;;5074459;28;20557;-78
2024/01/13 13:14:54;;;;;;;40.60;19.87;;;;;;;;;;5074431;28;20546;-79
2024/01/13 13:17:20;;;;;;;34.70;18.43;;;;;;;;;;5074480;28;20566;-78
2024/01/13 13:19:47;;;;;;;37.73;18.43;;;;;;;;;;5073525;28;20449;-80
2024/01/13 13:22:14;;;;;;;36.57;18.50;;;;;;;;;;5074025;28;20467;-78
2024/01/13 13:24:43;;;;;;;38.13;18.40;;;;;;;;;;5074991;28;20489;-78
2024/01/13 13:27:09;;;;;;;42.40;19.80;;;;;;;;;;5074472;28;20505;-79
2024/01/13 13:29:36;;;;;;;40.93;19.03;;;;;;;;;;5074737;28;20542;-78
2024/01/13 13:32:04;;;;;;;39.03;17.73;;;;;;;;;;5074472;28;20494;-78
2024/01/13 13:34:31;;;;;;;35.23;17.90;;;;;;;;;;5074447;28;20483;-79
2024/01/13 13:36:59;;;;;;;34.07;16.80;;;;;;;;;;5074556;28;20463;-80
2024/01/13 13:39:25;;;;;;;29.37;17.50;;;;;;;;;;5074420;28;20469;-80
2024/01/13 13:41:53;;;;;;;42.43;17.33;;;;;;;;;;5073464;28;20994;-79
2024/01/13 13:44:19;;;;;;;27.77;14.87;;;;;;;;;;5074314;28;21016;-80
2024/01/13 13:46:46;;;;;;;31.33;14.20;;;;;;;;;;5073875;28;20471;-80
2024/01/13 13:49:14;;;;;;;27.90;14.03;;;;;;;;;;5074608;28;20441;-80
2024/01/13 13:51:42;;;;;;;28.77;13.53;;;;;;;;;;5072726;28;20542;-80
2024/01/13 13:54:08;;;;;;;25.80;13.20;;;;;;;;;;5074345;28;20533;-80
2024/01/13 13:56:36;;;;;;;29.37;14.90;;;;;;;;;;5074349;28;20497;-80
2024/01/13 13:59:05;;;;;;;31.80;14.23;;;;;;;;;;5077833;28;20496;-80
2024/01/13 14:01:32;;;;;;;22.90;13.90;;;;;;;;;;5077938;28;20463;-81
2024/01/13 14:04:03;;;;;;;28.60;15.47;;;;;;;;;;5077751;28;20851;-80
2024/01/13 14:06:31;;;;;;;28.63;15.37;;;;;;;;;;5077969;28;20474;-80
2024/01/13 14:08:58;;;;;;;27.93;15.60;;;;;;;;;;5078330;28;20443;-80
2024/01/13 14:11:25;;;;;;;31.00;17.03;;;;;;;;;;5078005;28;20467;-80
2024/01/13 14:13:51;;;;;;;26.57;14.23;;;;;;;;;;5077607;28;20893;-81
2024/01/13 14:16:17;;;;;;;27.10;13.47;;;;;;;;;;5077589;28;20474;-80
2024/01/13 14:18:47;;;;;;;24.93;14.03;;;;;;;;;;5078143;28;20514;-80
2024/01/13 14:21:14;;;;;;;27.07;14.37;;;;;;;;;;5077863;28;20466;-80
2024/01/13 14:23:41;;;;;;;24.23;12.20;;;;;;;;;;5078165;28;20493;-80
2024/01/13 14:26:09;;;;;;;29.33;13.40;;;;;;;;;;5076839;28;21000;-80
2024/01/13 14:28:35;;;;;;;23.17;12.13;;;;;;;;;;5076235;28;20460;-80
2024/01/13 14:31:05;;;;;;;22.10;11.67;;;;;;;;;;5077395;28;20554;-80
2024/01/13 14:33:32;;;;;;;20.90;13.80;;;;;;;;;;5077679;28;20518;-80